createdAt,value
2023-04-15T00:03:12.054Z,0.0
2023-04-15T00:08:18.306Z,0.0
2023-04-15T00:13:44.665Z,0.0
2023-04-15T00:18:55.052Z,0.0
2023-04-15T00:24:01.456Z,0.0
2023-04-15T00:29:07.833Z,0.0
2023-04-15T00:34:11.356Z,0.0
2023-04-15T00:39:35.785Z,0.0
2023-04-15T00:44:18.076Z,0.0
2023-04-15T00:49:34.479Z,0.0
2023-04-15T00:54:40.883Z,0.0
2023-04-15T00:59:23.215Z,0.0
2023-04-15T01:04:33.387Z,0.0
2023-04-15T01:10:06.022Z,0.0
2023-04-15T01:14:48.366Z,0.0
2023-04-15T01:19:54.763Z,0.0
2023-04-15T01:25:01.157Z,0.0
2023-04-15T01:30:31.586Z,0.0
2023-04-15T01:35:33.927Z,0.0
2023-04-15T01:41:04.360Z,0.0
2023-04-15T01:46:23.904Z,0.0
2023-04-15T01:51:37.253Z,0.0
2023-04-15T01:55:39.561Z,0.0
2023-04-15T02:00:47.012Z,0.0
2023-04-15T02:05:53.388Z,0.0
2023-04-15T02:10:59.819Z,0.0
2023-04-15T02:16:07.375Z,0.0
2023-04-15T02:21:13.782Z,0.0
2023-04-15T02:26:10.145Z,0.0
2023-04-15T02:31:50.628Z,0.0
2023-04-15T02:36:32.928Z,0.0
2023-04-15T02:41:39.273Z,0.0
2023-04-15T02:47:09.836Z,0.0
2023-04-15T02:52:12.823Z,0.0
2023-04-15T02:56:59.141Z,0.0
2023-04-15T03:02:33.243Z,0.0
2023-04-15T03:07:39.510Z,0.0
2023-04-15T03:12:21.803Z,0.0
2023-04-15T03:17:28.325Z,0.0
2023-04-15T03:22:34.636Z,0.0
2023-04-15T03:27:41.203Z,0.0
2023-04-15T03:32:47.542Z,0.0
2023-04-15T03:37:53.883Z,0.0
2023-04-15T03:43:00.413Z,0.0
2023-04-15T03:48:15.912Z,0.0
2023-04-15T03:53:14.762Z,0.0
2023-04-15T03:59:00.574Z,0.0
2023-04-15T04:03:32.259Z,0.0
2023-04-15T04:08:38.550Z,4.0
2023-04-15T04:13:44.974Z,8.0
2023-04-15T04:18:51.340Z,16.0
2023-04-15T04:24:21.778Z,32.0
2023-04-15T04:29:04.382Z,64.0
2023-04-15T04:34:10.717Z,108.0
2023-04-15T04:39:45.141Z,160.0
2023-04-15T04:44:13.437Z,228.0
2023-04-15T04:49:29.861Z,308.0
2023-04-15T04:55:00.337Z,392.0
2023-04-15T05:00:07.772Z,480.0
2023-04-15T05:04:50.132Z,584.0
2023-04-15T05:09:56.503Z,700.0
2023-04-15T05:15:02.987Z,820.0
2023-04-15T05:20:09.468Z,956.0
2023-04-15T05:25:15.830Z,1112.0
2023-04-15T05:30:26.220Z,1300.0
2023-04-15T05:35:18.746Z,1536.0
2023-04-15T05:40:25.207Z,1836.0
2023-04-15T05:45:41.912Z,2056.0
2023-04-15T05:51:12.366Z,2144.0
2023-04-15T05:55:54.671Z,2200.0
2023-04-15T06:01:05.041Z,2368.0
2023-04-15T06:06:07.424Z,2636.0
2023-04-15T06:11:13.975Z,2864.0
2023-04-15T06:16:20.364Z,3128.0
2023-04-15T06:21:26.686Z,3464.0
2023-04-15T06:26:33.105Z,3732.0
2023-04-15T06:31:39.619Z,3716.0
2023-04-15T06:36:45.987Z,3728.0
2023-04-15T06:42:16.435Z,3864.0
2023-04-15T06:47:22.824Z,4132.0
2023-04-15T06:52:05.155Z,4548.0
2023-04-15T06:57:11.522Z,4988.0
2023-04-15T07:02:18.219Z,5352.0
2023-04-15T07:07:24.484Z,5692.0
2023-04-15T07:12:30.975Z,5984.0
2023-04-15T07:17:37.456Z,5908.0
2023-04-15T07:22:43.788Z,5840.0
2023-04-15T07:27:50.127Z,5832.0
2023-04-15T07:32:56.584Z,5940.0
2023-04-15T07:38:02.898Z,6216.0
2023-04-15T07:43:09.307Z,6496.0
2023-04-15T07:48:37.418Z,6068.0
2023-04-15T07:53:22.274Z,7120.0
2023-04-15T07:58:28.658Z,8052.0
2023-04-15T08:03:35.227Z,8388.0
2023-04-15T08:08:31.558Z,7376.0
2023-04-15T08:13:36.923Z,7368.0
2023-04-15T08:19:18.465Z,8392.0
2023-04-15T08:24:00.909Z,7280.0
2023-04-15T08:29:07.276Z,5500.0
2023-04-15T08:34:13.664Z,6488.0
2023-04-15T08:39:20.071Z,5800.0
2023-04-15T08:44:26.428Z,7564.0
2023-04-15T08:49:32.931Z,10248.0
2023-04-15T08:54:39.435Z,11172.0
2023-04-15T08:59:45.817Z,12872.0
2023-04-15T09:05:36.294Z,13844.0
2023-04-15T09:09:58.689Z,8920.0
2023-04-15T09:15:05.154Z,6020.0
2023-04-15T09:20:35.596Z,6288.0
2023-04-15T09:25:18.503Z,7636.0
2023-04-15T09:30:24.864Z,6348.0
2023-04-15T09:35:31.301Z,5564.0
2023-04-15T09:40:37.668Z,5720.0
2023-04-15T09:45:52.078Z,7728.0
2023-04-15T09:50:50.401Z,7488.0
2023-04-15T09:55:56.846Z,8020.0
2023-04-15T10:01:23.423Z,5220.0
2023-04-15T10:06:10.841Z,4504.0
2023-04-15T10:11:17.266Z,4368.0
2023-04-15T10:16:23.778Z,4404.0
2023-04-15T10:21:29.999Z,4908.0
2023-04-15T10:26:36.428Z,4884.0
2023-04-15T10:31:42.818Z,6380.0
2023-04-15T10:36:49.173Z,5032.0
2023-04-15T10:41:55.673Z,4132.0
2023-04-15T10:47:02.022Z,3476.0
2023-04-15T10:52:12.421Z,5072.0
2023-04-15T10:57:14.837Z,5388.0
2023-04-15T11:02:11.401Z,5264.0
2023-04-15T11:07:27.657Z,6656.0
2023-04-15T11:12:34.054Z,6904.0
2023-04-15T11:17:30.542Z,6136.0
2023-04-15T11:22:46.929Z,8940.0
2023-04-15T11:27:53.366Z,6420.0
2023-04-15T11:33:43.800Z,7088.0
2023-04-15T11:38:06.191Z,6416.0
2023-04-15T11:43:12.593Z,6624.0
2023-04-15T11:48:18.961Z,4904.0
2023-04-15T11:53:45.500Z,5420.0
2023-04-15T11:58:31.869Z,8556.0
2023-04-15T12:03:38.475Z,7680.0
2023-04-15T12:09:29.586Z,7328.0
2023-04-15T12:13:52.706Z,7080.0
2023-04-15T12:18:59.134Z,6948.0
2023-04-15T12:24:05.694Z,7424.0
2023-04-15T12:29:33.077Z,5048.0
2023-04-15T12:34:39.500Z,4280.0
2023-04-15T12:39:25.850Z,3920.0
2023-04-15T12:44:22.239Z,4612.0
2023-04-15T12:49:42.409Z,4508.0
2023-04-15T12:54:38.913Z,3292.0
2023-04-15T13:00:09.364Z,3324.0
2023-04-15T13:05:01.781Z,3156.0
2023-04-15T13:10:08.183Z,2416.0
2023-04-15T13:15:34.549Z,3020.0
2023-04-15T13:20:21.109Z,2680.0
2023-04-15T13:25:27.456Z,2900.0
2023-04-15T13:30:33.923Z,3472.0
2023-04-15T13:35:40.298Z,2832.0
2023-04-15T13:40:47.452Z,2484.0
2023-04-15T13:46:14.022Z,2660.0
2023-04-15T13:51:00.286Z,2684.0
2023-04-15T13:56:06.613Z,2476.0
2023-04-15T14:01:14.587Z,2468.0
2023-04-15T14:06:40.993Z,2968.0
2023-04-15T14:11:17.308Z,3112.0
2023-04-15T14:16:33.746Z,2528.0
2023-04-15T14:21:43.696Z,2196.0
2023-04-15T14:26:50.078Z,1832.0
2023-04-15T14:32:04.087Z,1952.0
2023-04-15T14:37:30.717Z,2008.0
2023-04-15T14:42:03.008Z,2252.0
2023-04-15T14:47:19.471Z,1720.0
2023-04-15T14:52:25.777Z,1684.0
2023-04-15T14:57:32.178Z,1140.0
2023-04-15T15:02:40.141Z,956.0
2023-04-15T15:07:45.069Z,996.0
2023-04-15T15:13:05.701Z,832.0
2023-04-15T15:17:58.082Z,860.0
2023-04-15T15:23:04.434Z,856.0
2023-04-15T15:28:10.816Z,744.0
2023-04-15T15:33:17.204Z,560.0
2023-04-15T15:38:23.567Z,568.0
2023-04-15T15:43:29.978Z,764.0
2023-04-15T15:48:26.323Z,776.0
2023-04-15T15:53:42.722Z,720.0
2023-04-15T15:58:39.109Z,872.0
2023-04-15T16:03:57.808Z,840.0
2023-04-15T16:08:54.031Z,672.0
2023-04-15T16:14:09.427Z,540.0
2023-04-15T16:19:16.768Z,512.0
2023-04-15T16:24:23.191Z,452.0
2023-04-15T16:29:29.623Z,472.0
2023-04-15T16:34:25.971Z,472.0
2023-04-15T16:39:32.358Z,432.0
2023-04-15T16:51:02.931Z,544.0
2023-04-15T17:02:22.301Z,564.0
2023-04-15T17:12:26.995Z,340.0
2023-04-15T17:18:45.500Z,272.0
2023-04-15T17:23:14.811Z,232.0
2023-04-15T17:28:10.211Z,196.0
2023-04-15T17:34:01.274Z,160.0
2023-04-15T17:38:24.045Z,156.0
2023-04-15T17:44:00.600Z,132.0
2023-04-15T17:49:07.189Z,108.0
2023-04-15T17:53:53.328Z,96.0
2023-04-15T17:58:59.778Z,80.0
2023-04-15T18:04:44.346Z,64.0
2023-04-15T18:09:32.593Z,56.0
2023-04-15T18:14:34.241Z,40.0
2023-04-15T18:19:26.127Z,32.0
2023-04-15T18:24:33.537Z,20.0
2023-04-15T18:30:03.952Z,16.0
2023-04-15T18:34:46.266Z,8.0
2023-04-15T18:40:06.786Z,4.0
2023-04-15T18:44:59.100Z,4.0
2023-04-15T18:50:05.495Z,0.0
2023-04-15T18:55:11.915Z,0.0
2023-04-15T19:00:18.259Z,0.0
2023-04-15T19:05:24.720Z,0.0
2023-04-15T19:11:12.462Z,0.0
2023-04-15T19:16:02.831Z,0.0
2023-04-15T19:21:09.450Z,0.0
2023-04-15T19:25:51.808Z,0.0
2023-04-15T19:30:58.262Z,0.0
2023-04-15T19:36:04.564Z,0.0
2023-04-15T19:41:31.113Z,0.0
2023-04-15T19:46:25.624Z,0.0
2023-04-15T19:51:44.052Z,0.0
2023-04-15T19:56:32.823Z,0.0
2023-04-15T20:01:36.938Z,0.0
2023-04-15T20:07:03.806Z,0.0
2023-04-15T20:12:55.113Z,0.0
2023-04-15T20:17:38.554Z,0.0
2023-04-15T20:22:45.466Z,0.0
2023-04-15T20:27:51.931Z,0.0
2023-04-15T20:32:59.490Z,0.0
2023-04-15T20:38:05.919Z,0.0
2023-04-15T20:43:12.280Z,0.0
2023-04-15T20:48:18.769Z,0.0
2023-04-15T20:53:25.112Z,0.0
2023-04-15T20:59:05.756Z,0.0
2023-04-15T21:04:16.623Z,0.0
2023-04-15T21:09:23.088Z,0.0
2023-04-15T21:14:19.450Z,0.0
2023-04-15T21:19:59.925Z,0.0
2023-04-15T21:24:56.305Z,0.0
2023-04-15T21:29:48.669Z,0.0
2023-04-15T21:34:45.007Z,0.0
2023-04-15T21:40:01.609Z,0.0
2023-04-15T21:44:57.862Z,0.0
2023-04-15T21:50:14.247Z,0.0
2023-04-15T21:55:20.671Z,0.0
2023-04-15T22:00:27.034Z,0.0
2023-04-15T22:05:33.414Z,0.0
2023-04-15T22:10:44.698Z,0.0
2023-04-15T22:15:47.158Z,0.0
2023-04-15T22:20:53.623Z,0.0
2023-04-15T22:26:00.045Z,0.0
2023-04-15T22:31:06.449Z,0.0
2023-04-15T22:36:12.985Z,0.0
2023-04-15T22:41:21.000Z,0.0
2023-04-15T22:46:55.385Z,0.0
2023-04-15T22:52:12.201Z,0.0
2023-04-15T22:57:16.286Z,0.0
2023-04-15T23:02:22.776Z,0.0
2023-04-15T23:07:29.046Z,0.0
2023-04-15T23:12:35.454Z,0.0
2023-04-15T23:18:25.890Z,0.0
2023-04-15T23:22:38.170Z,0.0
2023-04-15T23:27:54.597Z,0.0
2023-04-15T23:33:02.280Z,0.0
2023-04-15T23:43:05.052Z,0.0
2023-04-15T23:48:21.445Z,0.0
2023-04-15T23:53:27.837Z,0.0
2023-04-15T23:59:18.323Z,0.0
